»·PEaware :: WAT234 KSMX-KBFL

WAT234 :: KSMX-KBFL

FLIGHT INFORMATION

Flight Status: Arrived
Operator:
Walker Air Transport
More flights by this operator :: More flights under this callsign
Pilot: Eduardo Elias G. (24838)
Aircraft: CESSNA 172 SKYHAWK
(C172)
More flights by this aircraft type
Origin: KSMX Santa Maria Pub/Capt Hancock
United States
Destination: KBFL Meadows
United States
More flights between these airports :: More routes between these airports
Route: +
File this flight plan on PilotEdge
Remarks:
Altitude:
(Current/Filed)
5,500ft
Speed:
(Current/Filed)
0kts
Departed: 13-Sep-20 03:58 PM
Arrived: 13-Sep-20 04:41 PM
Distance/Time
Traveled:
76nm/0:43
Distance/Time
To Go:
Arrived

Flight Plot

Page will automatically refresh every two minutes.


Map Options




Map Legend


Flown Route
Filed Route
Departure Airport
Arrival Airport
Navaid (VOR, NDB)
Fix

Horizontal Profiles

Position Reports

Time Latitude Longitude Heading Altitude Ground
Speed
13-Sep-20 15:55 34.893599 -120.445207 181 265ft 0kts
13-Sep-20 15:56 34.893301 -120.445213 182 265ft 7kts
13-Sep-20 15:57 34.903150 -120.456703 332 767ft 75kts
13-Sep-20 15:58 34.915720 -120.439879 72 1757ft 82kts
13-Sep-20 15:59 34.923624 -120.411834 70 2729ft 91kts
13-Sep-20 16:00 34.933463 -120.382682 63 3677ft 96kts
13-Sep-20 16:01 34.945435 -120.353688 55 4581ft 97kts
13-Sep-20 16:02 34.957472 -120.324285 60 5422ft 98kts
13-Sep-20 16:03 34.971893 -120.289684 65 5643ft 129kts
13-Sep-20 16:04 34.985419 -120.247343 78 5627ft 134kts
13-Sep-20 16:05 34.996999 -120.203768 68 5648ft 134kts
13-Sep-20 16:06 35.010495 -120.160278 70 5606ft 135kts
13-Sep-20 16:07 35.020371 -120.115605 81 5579ft 135kts
13-Sep-20 16:08 35.034361 -120.071950 60 5564ft 134kts
13-Sep-20 16:09 35.054268 -120.033168 60 5522ft 133kts
13-Sep-20 16:10 35.068377 -119.995401 69 5511ft 114kts
13-Sep-20 16:11 35.078635 -119.958667 76 5457ft 111kts
13-Sep-20 16:12 35.084069 -119.920258 78 5494ft 106kts
13-Sep-20 16:13 35.093948 -119.881803 71 5487ft 115kts
13-Sep-20 16:14 35.104275 -119.842784 71 5505ft 116kts
13-Sep-20 16:15 35.115923 -119.805630 64 5505ft 117kts
13-Sep-20 16:16 35.128855 -119.769155 62 5511ft 117kts
13-Sep-20 16:17 35.150850 -119.739878 44 5507ft 117kts
13-Sep-20 16:18 35.175075 -119.713100 39 5518ft 117kts
13-Sep-20 16:19 35.195646 -119.682329 60 5523ft 117kts
13-Sep-20 16:20 35.210399 -119.646178 65 5530ft 117kts
13-Sep-20 16:21 35.223552 -119.608633 68 5539ft 116kts
13-Sep-20 16:22 35.235976 -119.571068 65 5544ft 117kts
13-Sep-20 16:23 35.249659 -119.534299 63 5550ft 117kts
13-Sep-20 16:24 35.268375 -119.499881 62 5553ft 116kts
13-Sep-20 16:25 35.282418 -119.463662 64 5554ft 117kts
13-Sep-20 16:26 35.296116 -119.427408 64 5558ft 117kts
13-Sep-20 16:27 35.309804 -119.391105 64 5564ft 117kts
13-Sep-20 16:28 35.324697 -119.351496 64 5081ft 123kts
13-Sep-20 16:29 35.339097 -119.313206 65 4577ft 123kts
13-Sep-20 16:30 35.354397 -119.272465 65 3946ft 123kts
13-Sep-20 16:31 35.369767 -119.231493 65 3196ft 123kts
13-Sep-20 16:32 35.385524 -119.189421 65 2423ft 122kts
13-Sep-20 16:33 35.400615 -119.149108 65 1720ft 120kts
13-Sep-20 16:34 35.414858 -119.110864 65 1522ft 107kts
13-Sep-20 16:35 35.415617 -119.075674 129 1508ft 101kts
13-Sep-20 16:36 35.393425 -119.052657 153 1621ft 101kts
13-Sep-20 16:37 35.395462 -119.024808 47 1429ft 93kts
13-Sep-20 16:38 35.410678 -119.031911 315 960ft 69kts
13-Sep-20 16:39 35.424379 -119.048289 315 561ft 67kts
13-Sep-20 16:40 35.431603 -119.055277 42 499ft 0kts
13-Sep-20 16:41 35.432579 -119.054061 44 499ft 17kts
13-Sep-20 16:42 35.430571 -119.049983 119 499ft 4kts
13-Sep-20 16:43 35.430095 -119.047336 143 499ft 17kts
13-Sep-20 16:44 35.429376 -119.046569 123 499ft 0kts
13-Sep-20 16:45 35.429376 -119.046569 123 499ft 0kts
13-Sep-20 16:46 35.429376 -119.046569 123 499ft 0kts
13-Sep-20 16:47 35.429376 -119.046569 123 499ft 0kts
13-Sep-20 16:48 35.429376 -119.046569 123 499ft 0kts

Navigation Log

Ident Type
Flight plan parsing failed, navigation log unavailable